Weather at Tivat Airport

Public forecast

Using degrees Celsius for public forecast. Weather courtesy of forecast.io.

Current aviation weather report (METAR) for Tivat Airport

2022/12/05 13:30 (retrieved 36 minutes ago)

LYTV 051330Z VRB02KT 9999 FEW033 SCT053 18/10 Q1021 NOSIG

Aviation forecast (TAF) for Tivat Airport

2022/12/05 12:21 (retrieved 2 hours ago)

TAF LYTV 051100Z 0512/0612 VRB02KT 9999 FEW040 TX16/0513Z TN08/0604Z TEMPO 0606/0612 5000 RA